Skip to content.

Wairarapa Tararua

  

Holdsworth - HWT

Logged in to unit HSN10604 as: Guest
(Last data received Thu 22 Feb 2018 17:30:00 - 6 minutes ago)

Weather FWI Graphs Forecast Hourly FWI Daily FWI Download FWI Data

Hourly FWI Logs | Period From 17:30 21/02/2018 to 17:30 22/02/2018

Change the DoC% for the 24hr period starting 12:00pm 22/2/2018 to

If the date above is the current day, then all future logs will inherit this value until such time as it is changed again. If you wish to change historic values you can do so by going back to the day you want to alter (navigate via the graphs) and change the DoC% there (however this will only affect that day).

WindRainHourly FWIsDaily FWIsForestGrassScrub
DateTime (NZST)Temp (C)RH (%)Dir (deg)Speed (km/h)Hourly (mm)Daily (mm)FFMCISIHFWIFFMCDMCDCISIBUIFWIDSRROS (m/h)FFI (kW/m)FFDCDoC (%)ROS (m/h)GFI (kW/m)GFDCROS (m/h)SFI (kW/m)SFDC
22/02/2018 1600 11.8 95.7 232 13.3 0.4 1.7 0.0 0.0 0 0 L 65 0 0 L 0 0 L
22/02/2018 1500 12.6 94.6 179 6.8 0.2 2.1 0.0 0.0 0 0 L 65 0 0 L 0 0 L
22/02/2018 1400 12.9 95.2 177 7.9 0.0 2.1 0.0 0.0 0 0 L 65 0 0 L 0 0 L
22/02/2018 1300 13.3 93.0 216 10.4 0.0 1.5 0.0 0.0 0 0 L 65 0 0 L 0 0 L
22/02/2018 1200 12.8 97.4 208 7.6 1.0 38.0 0.4 0.0 0.0 10.9 4.8 184.3 0.0 9.0 0.0 0.0 0 0 L 65 0 0 L 0 0 L
22/02/2018 1100 12.7 94.9 205 10.1 0.2 0.9 0.0 0.0 0 0 L 65 0 0 L 0 0 L
22/02/2018 1000 12.4 96.5 187 10.1 0.0 1.0 0.0 0.0 0 0 L 65 0 0 L 0 0 L
22/02/2018 0900 12.1 97.7 198 6.5 0.0 0.4 0.0 0.0 0 0 L 65 0 0 L 0 0 L
22/02/2018 0800 11.2 99.3 203 9.0 0.2 0.1 0.0 0.0 0 0 L 65 0 0 L 0 0 L
22/02/2018 0700 10.4 100.0 216 7.6 2.6 0.0 0.0 0.0 0 0 L 65 0 0 L 0 0 L
22/02/2018 0600 10.4 100.0 212 7.9 6.2 0.0 0.0 0.0 0 0 L 65 0 0 L 0 0 L
22/02/2018 0500 10.6 100.0 221 2.9 8.0 0.0 0.0 0.0 0 0 L 65 0 0 L 0 0 L
22/02/2018 0400 10.7 99.9 245 6.8 6.0 0.0 0.0 0.0 0 0 L 65 0 0 L 0 0 L
22/02/2018 0300 10.7 99.3 227 15.8 5.0 3.9 0.0 0.0 0 0 L 65 0 0 L 0 0 L
22/02/2018 0200 11.2 98.9 212 8.6 4.2 10.7 0.0 0.0 0 0 L 65 0 0 L 0 0 L
22/02/2018 0100 11.6 98.0 193 10.1 1.4 27.2 0.0 0.0 0 0 L 65 0 0 L 0 0 L
22/02/2018 0000 12.5 97.1 202 5.8 1.2 38.0 0.0 0.0 0 0 L 65 0 0 L 1 9 L
21/02/2018 2300 12.7 95.3 223 6.5 1.0 51.2 0.3 0.2 1 2 L 65 2 3 L 20 204 M
21/02/2018 2200 12.0 94.0 124 4.7 0.0 66.3 0.7 0.7 8 8 L 65 8 14 M 87 867 H
21/02/2018 2100 12.9 91.8 323 7.6 0.2 66.1 0.8 0.8 10 10 L 65 10 18 M 106 1060 H
21/02/2018 2000 14.9 78.6 355 6.1 0.2 69.5 0.8 0.8 10 11 M 65 11 19 M 112 1120 H
21/02/2018 1900 15.7 66.1 310 11.9 0.2 72.6 1.2 1.7 20 20 M 65 21 37 M 197 1972 H
21/02/2018 1800 15.4 73.9 322 10.4 0.2 75.5 1.3 1.9 22 23 M 65 24 41 M 217 2171 V
21/02/2018 1700 18.4 60.8 311 8.3 0.0 79.2 1.6 2.5 29 30 M 65 32 56 M 279 2791 V